East Claridon, Ohio
Current Conditions -  °F | °C
As of 9:45 AM on Sunday 23 Nov 2014 (Local Time) from KCGF Reporting Station
Overcast Overcast  
Wind Chill: 43°   Ceiling: 3500
Heat Index: 48°   Visibility: 15mi
Dew Point: 41°   Wind: 13mph
Humidity: 76%   Direction: 170°S
Pressure: 30.02"   Gusts: 22mph
Location:  41.53°N, 81.11°W
Report Text: KCGF 231445Z 17011G19KT 15SM BKN035 OVC060 09/05 A3002
Loading
Personal Weather Stations






























Interactive Weather Map New forecast layout! Learn more

10-Day Weather Forecast

Advertisements
Track Severe Weather on mobile